sensor_id;sensor_type;location;lat;lon;timestamp;pressure;altitude;pressure_sealevel;temperature;humidity
35655;BME280;21773;50.010;19.972;2022-07-23T00:02:42;98766.38;;;29.37;42.93
35655;BME280;21773;50.010;19.972;2022-07-23T00:05:46;98761.19;;;29.36;42.34
35655;BME280;21773;50.010;19.972;2022-07-23T00:08:51;98762.34;;;29.35;42.44
35655;BME280;21773;50.010;19.972;2022-07-23T00:11:55;98759.56;;;29.35;42.78
35655;BME280;21773;50.010;19.972;2022-07-23T00:14:59;98759.09;;;29.33;42.92
35655;BME280;21773;50.010;19.972;2022-07-23T00:18:02;98763.69;;;29.28;42.96
35655;BME280;21773;50.010;19.972;2022-07-23T00:21:06;98762.78;;;29.24;42.95
35655;BME280;21773;50.010;19.972;2022-07-23T00:24:11;98752.22;;;29.18;43.50
35655;BME280;21773;50.010;19.972;2022-07-23T00:27:15;98754.91;;;29.14;43.80
35655;BME280;21773;50.010;19.972;2022-07-23T00:30:18;98760.69;;;29.09;44.29
35655;BME280;21773;50.010;19.972;2022-07-23T00:33:21;98764.16;;;29.06;43.45
35655;BME280;21773;50.010;19.972;2022-07-23T00:36:25;98774.34;;;29.02;43.69
35655;BME280;21773;50.010;19.972;2022-07-23T00:39:30;98773.88;;;29.00;43.94
35655;BME280;21773;50.010;19.972;2022-07-23T00:42:33;98770.63;;;28.98;43.28
35655;BME280;21773;50.010;19.972;2022-07-23T00:45:37;98770.50;;;28.95;43.72
35655;BME280;21773;50.010;19.972;2022-07-23T00:48:40;98767.28;;;28.93;43.57
35655;BME280;21773;50.010;19.972;2022-07-23T00:51:44;98777.09;;;28.90;43.60
35655;BME280;21773;50.010;19.972;2022-07-23T00:54:49;98781.72;;;28.86;43.83
35655;BME280;21773;50.010;19.972;2022-07-23T00:57:53;98776.88;;;28.83;43.85
35655;BME280;21773;50.010;19.972;2022-07-23T01:00:57;98775.25;;;28.82;43.93
35655;BME280;21773;50.010;19.972;2022-07-23T01:04:01;98775.91;;;28.79;43.77
35655;BME280;21773;50.010;19.972;2022-07-23T01:07:05;98782.75;;;28.81;42.77
35655;BME280;21773;50.010;19.972;2022-07-23T01:10:10;98783.09;;;28.80;42.29
35655;BME280;21773;50.010;19.972;2022-07-23T01:13:27;98779.50;;;28.79;42.46
35655;BME280;21773;50.010;19.972;2022-07-23T01:16:31;98765.72;;;28.71;42.35
35655;BME280;21773;50.010;19.972;2022-07-23T01:19:37;98779.16;;;28.81;42.27
35655;BME280;21773;50.010;19.972;2022-07-23T01:22:42;98765.63;;;28.79;42.18
35655;BME280;21773;50.010;19.972;2022-07-23T01:25:48;98769.69;;;28.82;42.23
35655;BME280;21773;50.010;19.972;2022-07-23T01:28:51;98773.63;;;28.81;42.66
35655;BME280;21773;50.010;19.972;2022-07-23T01:31:55;98768.06;;;28.81;42.49
35655;BME280;21773;50.010;19.972;2022-07-23T01:34:58;98767.59;;;28.79;42.54
35655;BME280;21773;50.010;19.972;2022-07-23T01:38:03;98735.19;;;28.59;43.02
35655;BME280;21773;50.010;19.972;2022-07-23T01:41:09;98768.28;;;28.76;42.53
35655;BME280;21773;50.010;19.972;2022-07-23T01:44:15;98773.34;;;28.74;42.92
35655;BME280;21773;50.010;19.972;2022-07-23T01:47:18;98770.13;;;28.72;42.84
35655;BME280;21773;50.010;19.972;2022-07-23T01:50:26;98768.81;;;28.69;42.92
35655;BME280;21773;50.010;19.972;2022-07-23T01:53:48;98763.97;;;28.66;42.82
35655;BME280;21773;50.010;19.972;2022-07-23T01:56:52;98770.53;;;28.62;43.08
35655;BME280;21773;50.010;19.972;2022-07-23T01:59:55;98776.78;;;28.59;43.27
35655;BME280;21773;50.010;19.972;2022-07-23T02:02:59;98771.09;;;28.55;43.50
35655;BME280;21773;50.010;19.972;2022-07-23T02:06:03;98769.84;;;28.53;43.24
35655;BME280;21773;50.010;19.972;2022-07-23T02:09:07;98770.16;;;28.51;43.31
35655;BME280;21773;50.010;19.972;2022-07-23T02:12:11;98764.03;;;28.46;43.38
35655;BME280;21773;50.010;19.972;2022-07-23T02:15:14;98771.53;;;28.45;43.42
35655;BME280;21773;50.010;19.972;2022-07-23T02:18:18;98777.28;;;28.40;43.65
35655;BME280;21773;50.010;19.972;2022-07-23T02:21:21;98770.81;;;28.36;43.82
35655;BME280;21773;50.010;19.972;2022-07-23T02:24:28;98774.28;;;28.33;43.63
35655;BME280;21773;50.010;19.972;2022-07-23T02:27:32;98773.34;;;28.29;43.96
35655;BME280;21773;50.010;19.972;2022-07-23T02:30:39;98778.06;;;28.28;44.11
35655;BME280;21773;50.010;19.972;2022-07-23T02:33:42;98772.38;;;28.25;44.24
35655;BME280;21773;50.010;19.972;2022-07-23T02:36:46;98768.34;;;28.22;43.87
35655;BME280;21773;50.010;19.972;2022-07-23T02:39:51;98771.81;;;28.19;44.03
35655;BME280;21773;50.010;19.972;2022-07-23T02:42:54;98773.75;;;28.19;44.34
35655;BME280;21773;50.010;19.972;2022-07-23T02:45:58;98776.06;;;28.17;44.27
35655;BME280;21773;50.010;19.972;2022-07-23T02:49:03;98772.81;;;28.15;43.96
35655;BME280;21773;50.010;19.972;2022-07-23T02:52:08;98773.47;;;28.12;44.39
35655;BME280;21773;50.010;19.972;2022-07-23T02:55:13;98762.66;;;27.98;43.96
35655;BME280;21773;50.010;19.972;2022-07-23T02:58:17;98746.44;;;27.88;44.24
35655;BME280;21773;50.010;19.972;2022-07-23T03:01:21;98775.50;;;28.02;44.06
35655;BME280;21773;50.010;19.972;2022-07-23T03:04:25;98776.31;;;28.03;44.33
35655;BME280;21773;50.010;19.972;2022-07-23T03:07:30;98755.09;;;27.86;44.31
35655;BME280;21773;50.010;19.972;2022-07-23T03:10:35;98780.09;;;27.98;44.48
35655;BME280;21773;50.010;19.972;2022-07-23T03:13:39;98775.38;;;27.99;44.51
35655;BME280;21773;50.010;19.972;2022-07-23T03:16:42;98766.25;;;27.98;44.52
35655;BME280;21773;50.010;19.972;2022-07-23T03:19:46;98767.88;;;27.99;44.29
35655;BME280;21773;50.010;19.972;2022-07-23T03:22:49;98769.47;;;28.00;44.53
35655;BME280;21773;50.010;19.972;2022-07-23T03:25:54;98761.97;;;28.01;44.58
35655;BME280;21773;50.010;19.972;2022-07-23T03:28:58;98765.56;;;28.01;44.53
35655;BME280;21773;50.010;19.972;2022-07-23T03:32:05;98764.53;;;28.06;44.43
35655;BME280;21773;50.010;19.972;2022-07-23T03:35:08;98758.66;;;28.08;44.43
35655;BME280;21773;50.010;19.972;2022-07-23T03:38:19;98717.81;;;27.84;44.06
35655;BME280;21773;50.010;19.972;2022-07-23T03:41:26;98753.75;;;28.13;44.03
35655;BME280;21773;50.010;19.972;2022-07-23T03:44:29;98752.59;;;28.14;44.01
35655;BME280;21773;50.010;19.972;2022-07-23T03:47:33;98763.50;;;28.19;44.27
35655;BME280;21773;50.010;19.972;2022-07-23T03:50:36;98749.47;;;28.16;43.94
35655;BME280;21773;50.010;19.972;2022-07-23T03:53:40;98756.72;;;28.29;43.82
35655;BME280;21773;50.010;19.972;2022-07-23T03:56:45;98759.25;;;28.34;43.72
35655;BME280;21773;50.010;19.972;2022-07-23T03:59:48;98761.34;;;28.37;43.79
35655;BME280;21773;50.010;19.972;2022-07-23T04:02:51;98760.78;;;28.43;43.73
35655;BME280;21773;50.010;19.972;2022-07-23T04:05:55;98765.31;;;28.48;43.86
35655;BME280;21773;50.010;19.972;2022-07-23T04:08:58;98752.03;;;28.54;43.66
35655;BME280;21773;50.010;19.972;2022-07-23T04:12:05;98754.59;;;28.59;43.88
35655;BME280;21773;50.010;19.972;2022-07-23T04:15:09;98749.28;;;28.66;43.37
35655;BME280;21773;50.010;19.972;2022-07-23T04:18:13;98750.72;;;28.72;43.69
35655;BME280;21773;50.010;19.972;2022-07-23T04:21:30;98756.16;;;28.80;43.16
35655;BME280;21773;50.010;19.972;2022-07-23T04:24:33;98758.81;;;28.89;43.44
35655;BME280;21773;50.010;19.972;2022-07-23T04:27:38;98760.69;;;28.97;42.97
35655;BME280;21773;50.010;19.972;2022-07-23T04:30:41;98760.56;;;29.06;42.78
35655;BME280;21773;50.010;19.972;2022-07-23T04:33:46;98753.28;;;29.13;42.95
35655;BME280;21773;50.010;19.972;2022-07-23T04:36:50;98749.59;;;29.21;42.73
35655;BME280;21773;50.010;19.972;2022-07-23T04:39:53;98747.03;;;29.28;42.69
35655;BME280;21773;50.010;19.972;2022-07-23T04:43:00;98745.44;;;29.40;42.18
35655;BME280;21773;50.010;19.972;2022-07-23T04:46:07;98741.03;;;29.51;42.08
35655;BME280;21773;50.010;19.972;2022-07-23T04:49:19;98747.59;;;29.58;41.93
35655;BME280;21773;50.010;19.972;2022-07-23T04:52:23;98739.59;;;29.69;41.21
35655;BME280;21773;50.010;19.972;2022-07-23T04:55:26;98751.72;;;29.77;41.31
35655;BME280;21773;50.010;19.972;2022-07-23T04:58:31;98752.41;;;29.86;41.72
35655;BME280;21773;50.010;19.972;2022-07-23T05:01:34;98762.25;;;29.95;41.75
35655;BME280;21773;50.010;19.972;2022-07-23T05:04:38;98739.88;;;30.04;41.09
35655;BME280;21773;50.010;19.972;2022-07-23T05:07:43;98744.91;;;30.14;41.30
35655;BME280;21773;50.010;19.972;2022-07-23T05:10:46;98752.38;;;30.26;40.88
35655;BME280;21773;50.010;19.972;2022-07-23T05:13:51;98749.91;;;30.36;40.23
35655;BME280;21773;50.010;19.972;2022-07-23T05:16:55;98749.72;;;30.45;40.32
35655;BME280;21773;50.010;19.972;2022-07-23T05:20:00;98757.59;;;30.55;40.24
35655;BME280;21773;50.010;19.972;2022-07-23T05:23:04;98755.47;;;30.64;40.58
35655;BME280;21773;50.010;19.972;2022-07-23T05:26:08;98744.97;;;30.73;40.21
35655;BME280;21773;50.010;19.972;2022-07-23T05:29:13;98750.34;;;30.82;39.77
35655;BME280;21773;50.010;19.972;2022-07-23T05:32:16;98752.53;;;30.88;39.53
35655;BME280;21773;50.010;19.972;2022-07-23T05:35:28;98751.06;;;30.94;39.71
35655;BME280;21773;50.010;19.972;2022-07-23T05:38:57;98759.28;;;31.03;39.46
35655;BME280;21773;50.010;19.972;2022-07-23T05:42:03;98746.69;;;31.09;39.35
35655;BME280;21773;50.010;19.972;2022-07-23T05:45:09;98751.72;;;31.19;39.21
35655;BME280;21773;50.010;19.972;2022-07-23T05:48:16;98741.56;;;31.27;39.63
35655;BME280;21773;50.010;19.972;2022-07-23T05:51:38;98728.94;;;31.33;39.64
35655;BME280;21773;50.010;19.972;2022-07-23T05:54:42;98738.22;;;31.37;39.85
35655;BME280;21773;50.010;19.972;2022-07-23T05:57:45;98742.25;;;31.39;39.63
35655;BME280;21773;50.010;19.972;2022-07-23T06:00:50;98745.91;;;31.44;39.41
35655;BME280;21773;50.010;19.972;2022-07-23T06:03:53;98750.84;;;31.50;39.41
35655;BME280;21773;50.010;19.972;2022-07-23T06:07:01;98747.53;;;31.60;39.52
35655;BME280;21773;50.010;19.972;2022-07-23T06:10:06;98743.91;;;31.75;39.59
35655;BME280;21773;50.010;19.972;2022-07-23T06:13:10;98745.81;;;31.91;38.80
35655;BME280;21773;50.010;19.972;2022-07-23T06:16:15;98748.09;;;32.04;38.18
35655;BME280;21773;50.010;19.972;2022-07-23T06:19:20;98738.34;;;32.14;37.90
35655;BME280;21773;50.010;19.972;2022-07-23T06:22:24;98740.09;;;32.22;36.60
35655;BME280;21773;50.010;19.972;2022-07-23T06:25:28;98730.41;;;32.35;37.20
35655;BME280;21773;50.010;19.972;2022-07-23T06:28:31;98733.38;;;32.46;37.04
35655;BME280;21773;50.010;19.972;2022-07-23T06:31:36;98730.44;;;32.58;36.64
35655;BME280;21773;50.010;19.972;2022-07-23T06:34:40;98731.53;;;32.73;36.86
35655;BME280;21773;50.010;19.972;2022-07-23T06:37:49;98728.16;;;32.86;36.59
35655;BME280;21773;50.010;19.972;2022-07-23T06:40:52;98717.94;;;32.94;35.93
35655;BME280;21773;50.010;19.972;2022-07-23T06:43:56;98718.97;;;33.08;35.93
35655;BME280;21773;50.010;19.972;2022-07-23T06:47:03;98716.78;;;33.21;35.39
35655;BME280;21773;50.010;19.972;2022-07-23T06:50:06;98719.00;;;33.35;36.08
35655;BME280;21773;50.010;19.972;2022-07-23T06:53:10;98717.16;;;33.46;35.88
35655;BME280;21773;50.010;19.972;2022-07-23T06:56:16;98728.50;;;33.57;35.81
35655;BME280;21773;50.010;19.972;2022-07-23T06:59:19;98715.84;;;33.66;35.13
35655;BME280;21773;50.010;19.972;2022-07-23T07:02:24;98721.25;;;33.82;35.21
35655;BME280;21773;50.010;19.972;2022-07-23T07:05:29;98713.41;;;33.91;34.57
35655;BME280;21773;50.010;19.972;2022-07-23T07:08:32;98711.16;;;34.04;34.53
35655;BME280;21773;50.010;19.972;2022-07-23T07:11:35;98708.50;;;34.14;34.50
35655;BME280;21773;50.010;19.972;2022-07-23T07:14:39;98713.00;;;34.22;34.50
35655;BME280;21773;50.010;19.972;2022-07-23T07:17:44;98713.50;;;34.31;34.17
35655;BME280;21773;50.010;19.972;2022-07-23T07:20:48;98716.06;;;34.47;35.52
35655;BME280;21773;50.010;19.972;2022-07-23T07:23:52;98714.63;;;34.64;34.36
35655;BME280;21773;50.010;19.972;2022-07-23T07:26:56;98717.16;;;34.76;34.33
35655;BME280;21773;50.010;19.972;2022-07-23T07:29:59;98711.66;;;34.87;34.97
35655;BME280;21773;50.010;19.972;2022-07-23T07:33:04;98699.38;;;34.98;34.05
35655;BME280;21773;50.010;19.972;2022-07-23T07:36:08;98698.59;;;35.05;33.68
35655;BME280;21773;50.010;19.972;2022-07-23T07:39:16;98685.47;;;35.16;34.04
35655;BME280;21773;50.010;19.972;2022-07-23T07:42:20;98694.44;;;35.32;34.33
35655;BME280;21773;50.010;19.972;2022-07-23T07:45:24;98682.94;;;35.51;33.99
35655;BME280;21773;50.010;19.972;2022-07-23T07:48:28;98688.66;;;35.73;33.85
35655;BME280;21773;50.010;19.972;2022-07-23T07:51:32;98693.56;;;35.93;33.49
35655;BME280;21773;50.010;19.972;2022-07-23T07:54:37;98686.38;;;35.96;33.35
35655;BME280;21773;50.010;19.972;2022-07-23T07:57:40;98699.72;;;36.24;33.26
35655;BME280;21773;50.010;19.972;2022-07-23T08:00:50;98702.53;;;36.41;31.67
35655;BME280;21773;50.010;19.972;2022-07-23T08:03:55;98703.38;;;36.56;32.45
35655;BME280;21773;50.010;19.972;2022-07-23T08:06:58;98706.66;;;36.72;32.50
35655;BME280;21773;50.010;19.972;2022-07-23T08:10:02;98715.88;;;36.90;32.31
35655;BME280;21773;50.010;19.972;2022-07-23T08:13:06;98713.47;;;37.07;31.45
35655;BME280;21773;50.010;19.972;2022-07-23T08:16:10;98713.88;;;37.16;30.97
35655;BME280;21773;50.010;19.972;2022-07-23T08:19:15;98711.06;;;37.30;31.52
35655;BME280;21773;50.010;19.972;2022-07-23T08:22:18;98712.25;;;37.47;31.39
35655;BME280;21773;50.010;19.972;2022-07-23T08:25:24;98716.22;;;37.63;31.40
35655;BME280;21773;50.010;19.972;2022-07-23T08:28:27;98721.84;;;37.78;29.46
35655;BME280;21773;50.010;19.972;2022-07-23T08:31:31;98723.38;;;37.96;30.33
35655;BME280;21773;50.010;19.972;2022-07-23T08:34:36;98718.50;;;38.11;30.23
35655;BME280;21773;50.010;19.972;2022-07-23T08:37:45;98718.38;;;38.32;30.60
35655;BME280;21773;50.010;19.972;2022-07-23T08:40:50;98715.06;;;38.51;29.58
35655;BME280;21773;50.010;19.972;2022-07-23T08:43:54;98720.97;;;38.71;29.37
35655;BME280;21773;50.010;19.972;2022-07-23T08:46:59;98711.63;;;38.88;29.19
35655;BME280;21773;50.010;19.972;2022-07-23T08:50:04;98707.47;;;39.00;28.78
35655;BME280;21773;50.010;19.972;2022-07-23T08:53:10;98706.16;;;39.15;29.32
35655;BME280;21773;50.010;19.972;2022-07-23T08:56:14;98701.63;;;39.25;27.89
35655;BME280;21773;50.010;19.972;2022-07-23T08:59:19;98690.31;;;39.28;27.13
35655;BME280;21773;50.010;19.972;2022-07-23T09:02:23;98680.22;;;39.31;26.99
35655;BME280;21773;50.010;19.972;2022-07-23T09:05:27;98674.91;;;39.40;27.24
35655;BME280;21773;50.010;19.972;2022-07-23T09:08:36;98668.47;;;39.39;26.08
35655;BME280;21773;50.010;19.972;2022-07-23T09:11:45;98668.03;;;39.41;26.38
35655;BME280;21773;50.010;19.972;2022-07-23T09:14:54;98643.53;;;39.34;26.82
35655;BME280;21773;50.010;19.972;2022-07-23T09:17:57;98670.19;;;39.67;27.73
35655;BME280;21773;50.010;19.972;2022-07-23T09:21:14;98679.25;;;39.86;26.11
35655;BME280;21773;50.010;19.972;2022-07-23T09:24:18;98669.09;;;39.92;25.00
35655;BME280;21773;50.010;19.972;2022-07-23T09:27:23;98675.91;;;39.94;24.98
35655;BME280;21773;50.010;19.972;2022-07-23T09:30:53;98677.16;;;39.90;24.20
35655;BME280;21773;50.010;19.972;2022-07-23T09:34:06;98681.81;;;40.03;25.68
35655;BME280;21773;50.010;19.972;2022-07-23T09:37:13;98688.03;;;40.25;25.74
35655;BME280;21773;50.010;19.972;2022-07-23T09:40:17;98686.47;;;40.47;25.19
35655;BME280;21773;50.010;19.972;2022-07-23T09:43:26;98668.06;;;40.66;23.64
35655;BME280;21773;50.010;19.972;2022-07-23T09:46:36;98666.56;;;40.81;23.84
35655;BME280;21773;50.010;19.972;2022-07-23T09:49:57;98656.69;;;40.93;24.04
35655;BME280;21773;50.010;19.972;2022-07-23T09:53:02;98656.88;;;41.05;24.09
35655;BME280;21773;50.010;19.972;2022-07-23T09:56:07;98657.56;;;41.13;23.43
35655;BME280;21773;50.010;19.972;2022-07-23T09:59:11;98653.81;;;41.20;23.09
35655;BME280;21773;50.010;19.972;2022-07-23T10:02:14;98652.22;;;41.19;22.82
35655;BME280;21773;50.010;19.972;2022-07-23T10:05:48;98642.75;;;41.05;23.42
35655;BME280;21773;50.010;19.972;2022-07-23T10:09:16;98643.56;;;41.06;23.36
35655;BME280;21773;50.010;19.972;2022-07-23T10:12:50;98636.31;;;41.05;21.86
35655;BME280;21773;50.010;19.972;2022-07-23T10:16:08;98645.22;;;41.03;22.21
35655;BME280;21773;50.010;19.972;2022-07-23T10:19:12;98641.16;;;41.04;22.00
35655;BME280;21773;50.010;19.972;2022-07-23T10:22:20;98638.16;;;41.15;23.02
35655;BME280;21773;50.010;19.972;2022-07-23T10:25:31;98634.75;;;41.24;22.07
35655;BME280;21773;50.010;19.972;2022-07-23T10:29:00;98632.16;;;41.33;22.13
35655;BME280;21773;50.010;19.972;2022-07-23T10:32:12;98638.28;;;41.51;22.86
35655;BME280;21773;50.010;19.972;2022-07-23T10:35:26;98635.59;;;41.64;21.72
35655;BME280;21773;50.010;19.972;2022-07-23T10:38:40;98638.03;;;41.81;21.55
35655;BME280;21773;50.010;19.972;2022-07-23T10:41:47;98625.53;;;41.99;20.95
35655;BME280;21773;50.010;19.972;2022-07-23T10:44:50;98624.78;;;42.14;21.48
35655;BME280;21773;50.010;19.972;2022-07-23T10:47:53;98628.38;;;42.34;21.53
35655;BME280;21773;50.010;19.972;2022-07-23T10:51:09;98624.59;;;42.57;21.04
35655;BME280;21773;50.010;19.972;2022-07-23T10:54:21;98612.16;;;42.71;20.19
35655;BME280;21773;50.010;19.972;2022-07-23T10:57:27;98592.88;;;42.62;19.80
35655;BME280;21773;50.010;19.972;2022-07-23T11:00:31;98612.56;;;42.86;20.93
35655;BME280;21773;50.010;19.972;2022-07-23T11:03:35;98611.81;;;42.98;19.58
35655;BME280;21773;50.010;19.972;2022-07-23T11:07:07;98599.94;;;43.03;19.99
35655;BME280;21773;50.010;19.972;2022-07-23T11:10:32;98600.31;;;43.05;19.71
35655;BME280;21773;50.010;19.972;2022-07-23T11:13:45;98601.47;;;42.91;17.83
35655;BME280;21773;50.010;19.972;2022-07-23T11:16:54;98600.44;;;42.85;17.82
35655;BME280;21773;50.010;19.972;2022-07-23T11:20:19;98595.44;;;42.89;17.85
35655;BME280;21773;50.010;19.972;2022-07-23T11:23:23;98598.09;;;42.96;17.92
35655;BME280;21773;50.010;19.972;2022-07-23T11:26:50;98598.00;;;43.00;17.93
35655;BME280;21773;50.010;19.972;2022-07-23T11:29:56;98598.34;;;43.02;17.48
35655;BME280;21773;50.010;19.972;2022-07-23T11:33:16;98590.72;;;43.15;19.48
35655;BME280;21773;50.010;19.972;2022-07-23T11:36:20;98584.19;;;43.31;18.67
35655;BME280;21773;50.010;19.972;2022-07-23T11:39:25;98578.22;;;43.41;18.64
35655;BME280;21773;50.010;19.972;2022-07-23T11:42:29;98580.31;;;43.53;18.46
35655;BME280;21773;50.010;19.972;2022-07-23T11:45:37;98582.59;;;43.58;17.96
35655;BME280;21773;50.010;19.972;2022-07-23T11:48:41;98574.22;;;43.68;18.38
35655;BME280;21773;50.010;19.972;2022-07-23T11:51:45;98558.22;;;43.74;18.08
35655;BME280;21773;50.010;19.972;2022-07-23T11:54:49;98557.88;;;43.72;17.73
35655;BME280;21773;50.010;19.972;2022-07-23T11:57:54;98560.91;;;43.65;17.31
35655;BME280;21773;50.010;19.972;2022-07-23T12:01:02;98550.22;;;43.56;17.42
35655;BME280;21773;50.010;19.972;2022-07-23T12:04:06;98553.97;;;43.53;17.98
35655;BME280;21773;50.010;19.972;2022-07-23T12:07:31;98541.81;;;43.52;18.06
35655;BME280;21773;50.010;19.972;2022-07-23T12:10:37;98543.50;;;43.50;17.00
35655;BME280;21773;50.010;19.972;2022-07-23T12:13:40;98536.50;;;43.54;17.92
35655;BME280;21773;50.010;19.972;2022-07-23T12:16:45;98535.59;;;43.57;17.42
35655;BME280;21773;50.010;19.972;2022-07-23T12:19:49;98527.75;;;43.61;17.82
35655;BME280;21773;50.010;19.972;2022-07-23T12:22:56;98515.16;;;43.63;17.20
35655;BME280;21773;50.010;19.972;2022-07-23T12:26:01;98517.31;;;43.58;17.12
35655;BME280;21773;50.010;19.972;2022-07-23T12:29:05;98512.19;;;43.53;17.51
35655;BME280;21773;50.010;19.972;2022-07-23T12:32:19;98513.88;;;43.51;18.20
35655;BME280;21773;50.010;19.972;2022-07-23T12:35:30;98520.47;;;43.48;18.09
35655;BME280;21773;50.010;19.972;2022-07-23T12:38:38;98511.56;;;43.46;18.00
35655;BME280;21773;50.010;19.972;2022-07-23T12:41:51;98497.38;;;43.46;17.78
35655;BME280;21773;50.010;19.972;2022-07-23T12:45:09;98497.06;;;43.44;18.69
35655;BME280;21773;50.010;19.972;2022-07-23T12:48:23;98490.91;;;43.45;18.08
35655;BME280;21773;50.010;19.972;2022-07-23T12:51:30;98492.88;;;43.48;17.69
35655;BME280;21773;50.010;19.972;2022-07-23T12:54:34;98493.69;;;43.49;18.09
35655;BME280;21773;50.010;19.972;2022-07-23T12:57:46;98492.09;;;43.48;17.76
35655;BME280;21773;50.010;19.972;2022-07-23T13:00:59;98483.41;;;43.39;17.40
35655;BME280;21773;50.010;19.972;2022-07-23T13:04:09;98484.78;;;43.34;17.97
35655;BME280;21773;50.010;19.972;2022-07-23T13:07:15;98472.59;;;43.21;17.60
35655;BME280;21773;50.010;19.972;2022-07-23T13:10:18;98475.97;;;43.16;18.19
35655;BME280;21773;50.010;19.972;2022-07-23T13:13:25;98447.00;;;42.96;18.32
35655;BME280;21773;50.010;19.972;2022-07-23T13:16:32;98463.69;;;43.06;18.43
35655;BME280;21773;50.010;19.972;2022-07-23T13:19:37;98464.34;;;42.98;18.12
35655;BME280;21773;50.010;19.972;2022-07-23T13:22:41;98459.66;;;42.91;18.56
35655;BME280;21773;50.010;19.972;2022-07-23T13:25:44;98458.97;;;42.87;18.60
35655;BME280;21773;50.010;19.972;2022-07-23T13:28:48;98459.53;;;42.82;18.92
35655;BME280;21773;50.010;19.972;2022-07-23T13:31:52;98460.00;;;42.81;18.32
35655;BME280;21773;50.010;19.972;2022-07-23T13:34:59;98454.41;;;42.77;18.51
35655;BME280;21773;50.010;19.972;2022-07-23T13:38:02;98448.50;;;42.71;18.61
35655;BME280;21773;50.010;19.972;2022-07-23T13:41:08;98445.81;;;42.64;19.20
35655;BME280;21773;50.010;19.972;2022-07-23T13:44:13;98444.44;;;42.56;19.02
35655;BME280;21773;50.010;19.972;2022-07-23T13:47:16;98439.88;;;42.46;19.25
35655;BME280;21773;50.010;19.972;2022-07-23T13:50:21;98439.78;;;42.33;18.95
35655;BME280;21773;50.010;19.972;2022-07-23T13:53:28;98434.56;;;42.16;19.19
35655;BME280;21773;50.010;19.972;2022-07-23T13:56:32;98432.97;;;41.99;19.25
35655;BME280;21773;50.010;19.972;2022-07-23T13:59:35;98424.66;;;41.91;19.84
35655;BME280;21773;50.010;19.972;2022-07-23T14:02:39;98433.59;;;41.90;20.23
35655;BME280;21773;50.010;19.972;2022-07-23T14:05:48;98430.88;;;41.86;20.08
35655;BME280;21773;50.010;19.972;2022-07-23T14:08:53;98416.31;;;41.84;19.89
35655;BME280;21773;50.010;19.972;2022-07-23T14:11:56;98415.28;;;41.78;19.75
35655;BME280;21773;50.010;19.972;2022-07-23T14:14:59;98400.91;;;41.69;20.03
35655;BME280;21773;50.010;19.972;2022-07-23T14:18:03;98394.28;;;41.60;20.12
35655;BME280;21773;50.010;19.972;2022-07-23T14:21:08;98388.09;;;41.48;20.82
35655;BME280;21773;50.010;19.972;2022-07-23T14:24:11;98381.06;;;41.37;20.36
35655;BME280;21773;50.010;19.972;2022-07-23T14:27:14;98357.16;;;41.22;20.98
35655;BME280;21773;50.010;19.972;2022-07-23T14:30:18;98371.28;;;41.05;21.33
35655;BME280;21773;50.010;19.972;2022-07-23T14:33:24;98368.38;;;40.89;21.46
35655;BME280;21773;50.010;19.972;2022-07-23T14:36:29;98344.13;;;40.72;21.23
35655;BME280;21773;50.010;19.972;2022-07-23T14:39:32;98344.84;;;40.56;21.89
35655;BME280;21773;50.010;19.972;2022-07-23T14:42:36;98366.13;;;40.41;22.04
35655;BME280;21773;50.010;19.972;2022-07-23T14:45:39;98391.84;;;40.27;21.64
35655;BME280;21773;50.010;19.972;2022-07-23T14:48:50;98415.09;;;40.11;21.03
35655;BME280;21773;50.010;19.972;2022-07-23T14:51:54;98411.34;;;39.95;20.75
35655;BME280;21773;50.010;19.972;2022-07-23T14:54:58;98434.22;;;39.77;21.14
35655;BME280;21773;50.010;19.972;2022-07-23T14:58:01;98424.44;;;39.55;21.76
35655;BME280;21773;50.010;19.972;2022-07-23T15:01:05;98416.69;;;39.35;21.52
35655;BME280;21773;50.010;19.972;2022-07-23T15:04:08;98429.00;;;39.18;22.06
35655;BME280;21773;50.010;19.972;2022-07-23T15:07:33;98485.22;;;38.98;21.62
35655;BME280;21773;50.010;19.972;2022-07-23T15:10:37;98519.66;;;38.76;22.95
35655;BME280;21773;50.010;19.972;2022-07-23T15:13:40;98463.00;;;38.26;24.13
35655;BME280;21773;50.010;19.972;2022-07-23T15:16:44;98545.34;;;37.82;27.35
35655;BME280;21773;50.010;19.972;2022-07-23T15:19:48;98585.38;;;37.06;30.07
35655;BME280;21773;50.010;19.972;2022-07-23T15:22:53;98514.44;;;36.41;31.00
35655;BME280;21773;50.010;19.972;2022-07-23T15:25:57;98472.31;;;35.74;32.84
35655;BME280;21773;50.010;19.972;2022-07-23T15:29:02;98525.75;;;35.16;33.08
35655;BME280;21773;50.010;19.972;2022-07-23T15:32:08;98524.19;;;34.60;33.37
35655;BME280;21773;50.010;19.972;2022-07-23T15:35:13;98574.25;;;34.18;34.26
35655;BME280;21773;50.010;19.972;2022-07-23T15:38:18;98577.13;;;33.88;34.59
35655;BME280;21773;50.010;19.972;2022-07-23T15:41:27;98597.97;;;33.61;36.34
35655;BME280;21773;50.010;19.972;2022-07-23T15:44:30;98605.56;;;33.30;36.74
35655;BME280;21773;50.010;19.972;2022-07-23T15:47:36;98613.16;;;33.03;37.41
35655;BME280;21773;50.010;19.972;2022-07-23T15:50:39;98604.66;;;32.70;37.42
35655;BME280;21773;50.010;19.972;2022-07-23T15:53:48;98591.78;;;32.39;38.14
35655;BME280;21773;50.010;19.972;2022-07-23T15:56:52;98597.41;;;32.20;38.96
35655;BME280;21773;50.010;19.972;2022-07-23T15:59:56;98605.50;;;32.06;39.45
35655;BME280;21773;50.010;19.972;2022-07-23T16:02:59;98604.94;;;31.77;39.25
35655;BME280;21773;50.010;19.972;2022-07-23T16:06:08;98642.56;;;31.87;39.48
35655;BME280;21773;50.010;19.972;2022-07-23T16:09:20;98632.53;;;31.82;40.05
35655;BME280;21773;50.010;19.972;2022-07-23T16:12:23;98633.25;;;31.79;40.49
35655;BME280;21773;50.010;19.972;2022-07-23T16:15:27;98622.06;;;31.76;42.30